Time;durP1;ratioP1;P1;durP2;ratioP2;P2;SDS_P1;SDS_P2;PMS_P1;PMS_P2;Temp;Humidity;BMP_temperature;BMP_pressure;BME280_temperature;BME280_humidity;BME280_pressure;Samples;Min_cycle;Max_cycle;Signal;HPM_P1;HPM_P2
2024/03/17 00:02:06;;;;;;;9.32;5.85;;;;;;;5.34;100.00;97377.00;5022664;28;20055;-69
2024/03/17 00:04:31;;;;;;;11.98;8.80;;;;;;;5.32;100.00;97373.81;5037728;28;20485;-69
2024/03/17 00:06:57;;;;;;;8.07;4.57;;;;;;;5.22;100.00;97384.97;5031015;28;20037;-69
2024/03/17 00:09:24;;;;;;;7.38;4.72;;;;;;;5.20;100.00;97386.41;5034614;28;20822;-69
2024/03/17 00:11:49;;;;;;;8.23;4.82;;;;;;;5.37;100.00;97386.47;5027993;28;21525;-68
2024/03/17 00:14:15;;;;;;;9.07;5.47;;;;;;;5.60;100.00;97381.72;5028457;28;20041;-68
2024/03/17 00:16:40;;;;;;;9.98;6.10;;;;;;;5.67;100.00;97383.94;5038651;28;20052;-68
2024/03/17 00:19:06;;;;;;;8.43;5.40;;;;;;;5.67;100.00;97387.47;5029924;28;20055;-68
2024/03/17 00:21:31;;;;;;;6.72;4.90;;;;;;;5.75;100.00;97386.69;5038854;28;20495;-68
2024/03/17 00:23:57;;;;;;;6.43;4.80;;;;;;;5.79;100.00;97391.50;5009141;28;20076;-68
2024/03/17 00:26:22;;;;;;;6.00;4.95;;;;;;;5.82;100.00;97378.06;5035053;28;20049;-69
2024/03/17 00:28:50;;;;;;;8.55;4.57;;;;;;;5.97;100.00;97382.25;5050981;28;20060;-66
2024/03/17 00:31:16;;;;;;;8.60;4.80;;;;;;;6.01;100.00;97375.03;5020347;28;20042;-67
2024/03/17 00:33:42;;;;;;;5.85;4.70;;;;;;;5.77;100.00;97372.78;5034329;28;20048;-67
2024/03/17 00:36:07;;;;;;;5.85;4.30;;;;;;;5.51;100.00;97367.28;5022066;28;20045;-67
2024/03/17 00:38:33;;;;;;;6.18;4.28;;;;;;;5.43;100.00;97371.59;5040498;28;20045;-67
2024/03/17 00:40:58;;;;;;;6.60;4.65;;;;;;;5.37;100.00;97364.72;5041385;28;20045;-67
2024/03/17 00:43:24;;;;;;;6.20;4.28;;;;;;;5.36;100.00;97369.34;5031535;28;20131;-67
2024/03/17 00:45:53;;;;;;;6.13;3.95;;;;;;;5.44;100.00;97370.50;5044085;28;20037;-68
2024/03/17 00:48:18;;;;;;;7.63;5.38;;;;;;;5.55;100.00;97369.06;5038249;28;20092;-67
2024/03/17 00:50:47;;;;;;;5.93;4.65;;;;;;;5.61;100.00;97364.28;5042652;28;20057;-67
2024/03/17 00:53:14;;;;;;;5.70;4.57;;;;;;;5.57;100.00;97362.53;5037542;28;20040;-68
2024/03/17 00:55:39;;;;;;;7.03;4.38;;;;;;;5.44;100.00;97366.97;5039935;28;20048;-68
2024/03/17 00:58:05;;;;;;;7.63;4.30;;;;;;;5.46;100.00;97356.59;5028703;28;20132;-68
2024/03/17 01:00:32;;;;;;;6.80;5.03;;;;;;;5.36;100.00;97357.69;5041520;28;20053;-68
2024/03/17 01:02:58;;;;;;;10.60;5.20;;;;;;;5.19;100.00;97346.78;5033408;28;20051;-67
2024/03/17 01:05:23;;;;;;;11.60;6.38;;;;;;;5.00;100.00;97353.25;5028325;28;20128;-67
2024/03/17 01:07:49;;;;;;;8.68;6.15;;;;;;;4.85;100.00;97340.91;5033596;28;20041;-68
2024/03/17 01:10:15;;;;;;;8.18;6.38;;;;;;;4.78;100.00;97344.06;5039730;28;20144;-68
2024/03/17 01:12:40;;;;;;;8.85;6.78;;;;;;;4.73;100.00;97324.41;5050091;28;20049;-68
2024/03/17 01:15:06;;;;;;;8.40;5.75;;;;;;;4.63;100.00;97317.38;5016535;28;20048;-69
2024/03/17 01:17:32;;;;;;;7.35;5.47;;;;;;;4.64;100.00;97329.81;5030954;28;20056;-70
2024/03/17 01:19:58;;;;;;;7.80;5.25;;;;;;;4.69;100.00;97326.16;5029076;28;20048;-70
2024/03/17 01:22:23;;;;;;;8.18;5.63;;;;;;;4.81;100.00;97326.38;5021426;28;20523;-70
2024/03/17 01:24:48;;;;;;;11.18;4.85;;;;;;;4.93;100.00;97328.47;5033289;28;20202;-69
2024/03/17 01:27:16;;;;;;;9.15;5.15;;;;;;;5.02;100.00;97320.38;5031333;28;20195;-69
2024/03/17 01:29:43;;;;;;;12.70;5.80;;;;;;;5.16;100.00;97324.56;5048951;28;20087;-70
2024/03/17 01:32:09;;;;;;;11.05;6.68;;;;;;;5.33;100.00;97321.09;5026903;28;20041;-67
2024/03/17 01:34:34;;;;;;;8.15;5.70;;;;;;;5.44;100.00;97318.06;5041780;28;20137;-69
2024/03/17 01:37:00;;;;;;;12.10;6.53;;;;;;;5.48;100.00;97308.16;5041165;28;20084;-70
2024/03/17 01:39:25;;;;;;;13.60;6.60;;;;;;;5.50;100.00;97306.72;5035727;28;20045;-69
2024/03/17 01:41:51;;;;;;;9.65;5.30;;;;;;;5.46;100.00;97304.97;5039921;28;20041;-67
2024/03/17 01:44:26;;;;;;;8.10;5.70;;;;;;;5.47;100.00;97307.34;5004635;28;20186;-69
2024/03/17 01:46:51;;;;;;;10.60;5.93;;;;;;;5.56;100.00;97307.34;5041245;28;20045;-67
2024/03/17 01:49:18;;;;;;;7.63;5.20;;;;;;;5.79;100.00;97299.06;5010631;28;20056;-68
2024/03/17 01:51:46;;;;;;;7.47;4.88;;;;;;;5.86;100.00;97288.50;5040096;28;20064;-68
2024/03/17 01:54:13;;;;;;;10.80;4.82;;;;;;;5.81;100.00;97286.75;5030739;28;20033;-70
2024/03/17 01:56:39;;;;;;;7.32;4.15;;;;;;;5.82;100.00;97287.56;5041098;28;20056;-70
2024/03/17 01:59:05;;;;;;;6.82;4.30;;;;;;;5.93;100.00;97284.16;5036328;28;20123;-70
2024/03/17 02:01:31;;;;;;;6.28;3.80;;;;;;;5.94;100.00;97282.25;5041505;28;20612;-70
2024/03/17 02:03:57;;;;;;;4.88;3.60;;;;;;;6.01;100.00;97277.16;5038456;28;20045;-68
2024/03/17 02:06:24;;;;;;;6.82;4.50;;;;;;;6.12;100.00;97286.59;5017796;28;20543;-70
2024/03/17 02:08:54;;;;;;;6.90;3.80;;;;;;;6.21;100.00;97289.28;5039539;28;20507;-70
2024/03/17 02:11:28;;;;;;;7.07;3.78;;;;;;;6.33;100.00;97283.16;5035964;28;20741;-70
2024/03/17 02:13:55;;;;;;;6.50;3.08;;;;;;;6.38;100.00;97279.47;5031287;28;20514;-69
2024/03/17 02:16:21;;;;;;;6.60;3.30;;;;;;;6.39;100.00;97276.44;5034684;28;20044;-69
2024/03/17 02:18:46;;;;;;;6.70;3.40;;;;;;;6.41;100.00;97274.19;5015323;28;20041;-70
2024/03/17 02:21:15;;;;;;;5.15;3.30;;;;;;;6.51;100.00;97262.13;5035160;28;20052;-69
2024/03/17 02:23:44;;;;;;;6.10;3.80;;;;;;;6.45;100.00;97258.81;5014695;28;20052;-70
2024/03/17 02:26:10;;;;;;;5.85;3.80;;;;;;;6.40;100.00;97258.19;5034004;28;20098;-70
2024/03/17 02:28:40;;;;;;;4.40;3.35;;;;;;;6.19;100.00;97250.72;5039929;28;20048;-70
2024/03/17 02:31:08;;;;;;;6.55;3.45;;;;;;;5.94;100.00;97245.00;5021420;28;20043;-71
2024/03/17 02:33:33;;;;;;;6.07;3.28;;;;;;;5.84;100.00;97250.75;5040575;28;20049;-69
2024/03/17 02:35:59;;;;;;;6.05;3.63;;;;;;;6.00;100.00;97242.94;5040975;28;20037;-68
2024/03/17 02:41:09;;;;;;;5.53;3.00;;;;;;;6.17;100.00;97244.00;5028304;28;20717;-69
2024/03/17 02:43:35;;;;;;;6.07;3.63;;;;;;;6.02;100.00;97245.34;5033462;28;20132;-69
2024/03/17 02:46:04;;;;;;;7.57;3.95;;;;;;;6.08;100.00;97233.16;5035460;28;20050;-70
2024/03/17 02:48:30;;;;;;;5.93;3.30;;;;;;;6.09;100.00;97237.47;5021024;28;20049;-69
2024/03/17 02:50:56;;;;;;;7.00;3.28;;;;;;;6.10;100.00;97230.91;5020906;28;20102;-69
2024/03/17 02:53:21;;;;;;;8.38;3.80;;;;;;;6.11;100.00;97227.06;5035615;28;20597;-67
2024/03/17 02:55:47;;;;;;;7.13;3.38;;;;;;;6.11;100.00;97222.41;5040696;28;20059;-68
2024/03/17 02:58:12;;;;;;;7.05;3.95;;;;;;;6.04;100.00;97219.41;5001248;28;20048;-69
2024/03/17 03:00:38;;;;;;;7.65;4.20;;;;;;;5.80;100.00;97216.38;5038583;28;20617;-68
2024/03/17 03:03:05;;;;;;;6.47;4.20;;;;;;;5.52;100.00;97220.25;5017927;28;20082;-68
2024/03/17 03:05:30;;;;;;;5.28;3.97;;;;;;;5.38;100.00;97218.81;5021435;28;20053;-72
2024/03/17 03:07:56;;;;;;;7.07;4.40;;;;;;;5.31;100.00;97216.59;5031976;28;20083;-70
2024/03/17 03:10:21;;;;;;;4.75;3.88;;;;;;;5.35;100.00;97212.91;5021129;28;20604;-68
2024/03/17 03:12:47;;;;;;;8.32;4.20;;;;;;;5.33;100.00;97217.06;5045292;28;20057;-69
2024/03/17 03:15:12;;;;;;;8.93;4.38;;;;;;;5.20;100.00;97212.59;5033444;28;20068;-70
2024/03/17 03:17:39;;;;;;;5.78;3.70;;;;;;;5.19;100.00;97216.44;5035200;28;20044;-69
2024/03/17 03:20:05;;;;;;;7.75;3.63;;;;;;;5.21;100.00;97212.28;5030614;28;20056;-69
2024/03/17 03:22:31;;;;;;;4.65;3.20;;;;;;;5.33;100.00;97215.16;5030318;28;20072;-68
2024/03/17 03:24:56;;;;;;;4.78;3.58;;;;;;;5.41;100.00;97213.56;5041659;28;20550;-69
2024/03/17 03:27:22;;;;;;;5.97;3.63;;;;;;;5.45;100.00;97208.28;5044028;28;20558;-68
2024/03/17 03:29:49;;;;;;;4.35;3.50;;;;;;;5.47;100.00;97212.25;5045875;28;20045;-68
2024/03/17 03:32:14;;;;;;;6.75;3.50;;;;;;;5.51;100.00;97218.66;5036849;28;20037;-68
2024/03/17 03:34:40;;;;;;;7.93;3.53;;;;;;;5.56;100.00;97220.41;5029775;28;20050;-67
2024/03/17 03:37:08;;;;;;;5.10;3.35;;;;;;;5.52;100.00;97217.53;5023412;28;20040;-69
2024/03/17 03:39:34;;;;;;;7.43;3.97;;;;;;;5.52;100.00;97212.09;5015660;28;20061;-70
2024/03/17 03:42:01;;;;;;;5.72;3.60;;;;;;;5.61;100.00;97209.38;5026680;28;20406;-70
2024/03/17 03:44:28;;;;;;;4.78;3.42;;;;;;;5.66;100.00;97214.66;5017549;28;20045;-69
2024/03/17 03:46:57;;;;;;;5.88;3.90;;;;;;;5.64;100.00;97219.63;5010171;28;20550;-70
2024/03/17 03:49:23;;;;;;;5.80;3.60;;;;;;;5.66;100.00;97214.66;5029563;28;20052;-70
2024/03/17 03:51:48;;;;;;;5.35;3.50;;;;;;;5.58;100.00;97210.00;5039390;28;20407;-69
2024/03/17 03:54:13;;;;;;;5.80;3.05;;;;;;;5.48;100.00;97211.16;5016510;28;20041;-68
2024/03/17 03:56:39;;;;;;;6.55;3.53;;;;;;;5.48;100.00;97213.09;5034435;28;20048;-69
2024/03/17 03:59:05;;;;;;;6.47;3.60;;;;;;;5.51;100.00;97205.09;5005699;28;20316;-71
2024/03/17 04:01:31;;;;;;;4.57;2.72;;;;;;;5.61;100.00;97211.31;5039690;28;20048;-69
2024/03/17 04:03:56;;;;;;;6.13;3.17;;;;;;;5.66;100.00;97206.50;5038129;28;20045;-69
2024/03/17 04:06:22;;;;;;;4.22;2.97;;;;;;;5.70;100.00;97212.88;5030661;28;20529;-68
2024/03/17 04:08:48;;;;;;;5.38;3.20;;;;;;;5.75;100.00;97204.56;5037166;28;20458;-68
2024/03/17 04:11:13;;;;;;;5.68;3.15;;;;;;;5.78;100.00;97205.03;5033133;28;20037;-70
2024/03/17 04:13:39;;;;;;;5.10;3.25;;;;;;;5.76;100.00;97202.63;5037929;28;20515;-70
2024/03/17 04:16:07;;;;;;;7.38;3.72;;;;;;;5.73;100.00;97200.59;5032854;28;20077;-70
2024/03/17 04:18:34;;;;;;;5.38;2.97;;;;;;;5.69;100.00;97203.16;5039504;28;20043;-69
2024/03/17 04:21:04;;;;;;;6.10;3.53;;;;;;;5.69;100.00;97199.59;5042140;28;20102;-69
2024/03/17 04:23:33;;;;;;;4.05;3.05;;;;;;;5.72;100.00;97196.25;5031556;28;20071;-70
2024/03/17 04:25:59;;;;;;;10.27;3.40;;;;;;;5.72;100.00;97193.53;5029034;28;20072;-70
2024/03/17 04:28:25;;;;;;;6.18;2.88;;;;;;;5.70;100.00;97188.41;5037055;28;20076;-70
2024/03/17 04:30:50;;;;;;;3.90;2.70;;;;;;;5.66;100.00;97197.56;5049480;28;20072;-70
2024/03/17 04:33:18;;;;;;;3.63;2.63;;;;;;;5.55;100.00;97203.31;5036650;28;20045;-70
2024/03/17 04:35:45;;;;;;;3.97;2.70;;;;;;;5.51;100.00;97191.50;5044617;28;20333;-69
2024/03/17 04:38:10;;;;;;;8.55;2.58;;;;;;;5.56;100.00;97190.53;5047611;28;20037;-70
2024/03/17 04:40:42;;;;;;;7.80;2.85;;;;;;;5.65;100.00;97195.94;5040032;28;20141;-67
2024/03/17 04:43:08;;;;;;;5.80;2.78;;;;;;;5.61;100.00;97195.78;5019361;28;20067;-69
2024/03/17 04:45:34;;;;;;;8.05;3.13;;;;;;;5.61;100.00;97198.50;5039105;28;20067;-69
2024/03/17 04:47:59;;;;;;;7.00;2.53;;;;;;;5.58;100.00;97201.06;5043347;28;20037;-69
2024/03/17 04:50:26;;;;;;;3.00;2.53;;;;;;;5.29;100.00;97202.53;5037375;28;20056;-69
2024/03/17 04:52:52;;;;;;;13.27;3.30;;;;;;;5.19;100.00;97192.78;5042018;28;20126;-69
2024/03/17 04:55:18;;;;;;;4.70;2.88;;;;;;;5.26;100.00;97200.47;5014268;28;20602;-69
2024/03/17 04:57:47;;;;;;;4.55;2.85;;;;;;;5.22;100.00;97196.78;5022993;28;20053;-69
2024/03/17 05:00:13;;;;;;;3.50;2.83;;;;;;;5.13;100.00;97207.63;5030749;28;20129;-69
2024/03/17 05:02:40;;;;;;;4.78;3.30;;;;;;;5.19;100.00;97206.38;5042698;28;20053;-69
2024/03/17 05:05:07;;;;;;;5.68;3.05;;;;;;;5.17;100.00;97211.31;5018583;28;20439;-70
2024/03/17 05:07:33;;;;;;;5.65;3.20;;;;;;;5.18;100.00;97218.34;5038460;28;20130;-70
2024/03/17 05:09:58;;;;;;;6.05;2.80;;;;;;;5.15;100.00;97214.34;5041767;28;20383;-69
2024/03/17 05:12:24;;;;;;;6.38;3.30;;;;;;;5.14;100.00;97212.75;5019506;28;20077;-69
2024/03/17 05:14:49;;;;;;;5.55;2.97;;;;;;;5.17;100.00;97214.03;5041955;28;20045;-69
2024/03/17 05:17:14;;;;;;;5.38;2.78;;;;;;;5.17;100.00;97214.84;5019690;28;20040;-69
2024/03/17 05:19:40;;;;;;;9.20;2.90;;;;;;;5.20;100.00;97218.03;5042931;28;20159;-70
2024/03/17 05:22:05;;;;;;;5.85;3.63;;;;;;;5.11;100.00;97215.28;5036616;28;20095;-69
2024/03/17 05:24:31;;;;;;;3.47;2.78;;;;;;;5.13;100.00;97216.59;5042005;28;20110;-69
2024/03/17 05:26:56;;;;;;;5.43;3.72;;;;;;;5.06;100.00;97218.16;5032871;28;20048;-69
2024/03/17 05:29:22;;;;;;;4.57;3.45;;;;;;;5.10;100.00;97221.88;5031564;28;20081;-68
2024/03/17 05:31:48;;;;;;;3.72;2.60;;;;;;;5.12;100.00;97212.25;5020558;28;20051;-69
2024/03/17 05:34:13;;;;;;;5.25;2.75;;;;;;;5.09;100.00;97221.03;5023750;28;20526;-70
2024/03/17 05:36:39;;;;;;;5.22;2.90;;;;;;;5.08;100.00;97224.09;5036813;28;20056;-69
2024/03/17 05:39:04;;;;;;;4.88;3.22;;;;;;;5.07;100.00;97225.19;5049473;28;20037;-70
2024/03/17 05:41:30;;;;;;;6.35;3.03;;;;;;;5.06;100.00;97220.88;5055007;28;20129;-70
2024/03/17 05:43:58;;;;;;;4.07;2.90;;;;;;;4.76;100.00;97218.75;5023017;28;20045;-69
2024/03/17 05:46:26;;;;;;;5.00;3.15;;;;;;;4.63;100.00;97216.16;5037092;28;20041;-70
2024/03/17 05:48:51;;;;;;;7.63;3.70;;;;;;;4.47;100.00;97224.75;5041304;28;20059;-70
2024/03/17 05:51:17;;;;;;;8.65;3.78;;;;;;;4.67;100.00;97219.88;5037976;28;20119;-70
2024/03/17 05:53:45;;;;;;;5.07;3.70;;;;;;;4.90;100.00;97226.78;5041269;28;20105;-69
2024/03/17 05:56:12;;;;;;;5.07;3.50;;;;;;;5.14;100.00;97220.88;5020906;28;20056;-69
2024/03/17 05:58:38;;;;;;;5.07;3.50;;;;;;;5.44;100.00;97221.06;5041517;28;20496;-69
2024/03/17 06:01:06;;;;;;;4.25;2.95;;;;;;;5.97;100.00;97229.19;5024765;28;20136;-70
2024/03/17 06:03:32;;;;;;;6.15;3.63;;;;;;;6.70;100.00;97229.09;5029926;28;20650;-67
2024/03/17 06:06:03;;;;;;;6.70;3.40;;;;;;;7.35;100.00;97220.66;5040195;28;20041;-67
2024/03/17 06:08:28;;;;;;;5.15;3.03;;;;;;;7.42;100.00;97213.53;5041024;28;20045;-69
2024/03/17 06:10:54;;;;;;;6.45;2.85;;;;;;;7.42;100.00;97205.38;5026001;28;20111;-69
2024/03/17 06:13:19;;;;;;;3.88;2.63;;;;;;;7.30;100.00;97197.13;5027229;28;20047;-69
2024/03/17 06:15:47;;;;;;;4.30;2.58;;;;;;;7.17;100.00;97199.00;5048199;28;20052;-69
2024/03/17 06:18:17;;;;;;;8.88;2.70;;;;;;;7.30;100.00;97205.31;5040415;28;20045;-69
2024/03/17 06:20:45;;;;;;;4.50;2.58;;;;;;;7.47;100.00;97202.44;5044195;28;20099;-69
2024/03/17 06:23:12;;;;;;;5.65;2.30;;;;;;;8.36;100.00;97203.94;5018237;28;20036;-70
2024/03/17 06:25:45;;;;;;;2.67;1.95;;;;;;;9.20;100.00;97208.13;5022268;28;20041;-69
2024/03/17 06:28:15;;;;;;;3.28;1.90;;;;;;;9.63;100.00;97197.63;5036800;28;20052;-67
2024/03/17 06:30:41;;;;;;;7.10;1.50;;;;;;;9.57;100.00;97208.81;5041542;28;20131;-69
2024/03/17 06:33:09;;;;;;;3.25;1.80;;;;;;;9.80;100.00;97212.97;5031714;28;20065;-70
2024/03/17 06:35:36;;;;;;;6.47;2.00;;;;;;;10.14;100.00;97222.47;5003573;28;20057;-70
2024/03/17 06:38:02;;;;;;;3.63;2.17;;;;;;;10.27;100.00;97221.25;5037546;28;20052;-70
2024/03/17 06:40:36;;;;;;;5.32;2.35;;;;;;;10.64;100.00;97223.78;5042565;28;20051;-70
2024/03/17 06:43:02;;;;;;;5.90;2.63;;;;;;;11.32;100.00;97226.47;5026000;28;20137;-71
2024/03/17 06:45:27;;;;;;;4.22;2.08;;;;;;;11.69;100.00;97226.88;5031675;28;20132;-70
2024/03/17 06:47:53;;;;;;;4.70;1.88;;;;;;;12.15;100.00;97228.97;5039624;28;20407;-70
2024/03/17 06:50:18;;;;;;;1.90;1.50;;;;;;;12.55;100.00;97222.19;5035058;28;20045;-70
2024/03/17 06:52:43;;;;;;;3.58;1.63;;;;;;;12.64;100.00;97233.75;5038081;28;20048;-68
2024/03/17 06:55:09;;;;;;;8.32;2.08;;;;;;;12.91;100.00;97236.53;5034481;28;20515;-70
2024/03/17 06:57:35;;;;;;;3.95;2.38;;;;;;;13.27;100.00;97237.06;5038912;28;20140;-70
2024/03/17 07:00:01;;;;;;;5.47;2.20;;;;;;;13.59;100.00;97232.03;5040205;28;20049;-70
2024/03/17 07:02:27;;;;;;;4.90;2.28;;;;;;;13.81;100.00;97232.31;5036014;28;20052;-70
2024/03/17 07:04:52;;;;;;;5.60;2.13;;;;;;;14.07;100.00;97228.69;5039187;28;20053;-70
2024/03/17 07:07:17;;;;;;;5.13;2.25;;;;;;;14.24;100.00;97233.59;5035310;28;20068;-69
2024/03/17 07:09:43;;;;;;;7.57;2.00;;;;;;;14.56;100.00;97222.06;5038627;28;20041;-69
2024/03/17 07:12:09;;;;;;;3.95;2.58;;;;;;;14.80;100.00;97222.69;5035146;28;20091;-70
2024/03/17 07:14:35;;;;;;;4.45;2.50;;;;;;;15.28;96.80;97228.94;5039822;28;20068;-69
2024/03/17 07:17:00;;;;;;;5.13;2.55;;;;;;;15.62;92.51;97226.00;5039166;28;20079;-67
2024/03/17 07:19:25;;;;;;;4.72;2.97;;;;;;;14.46;100.00;97218.06;5034533;28;20052;-68
2024/03/17 07:21:51;;;;;;;10.05;4.88;;;;;;;12.55;100.00;97209.28;5032710;28;20045;-69
2024/03/17 07:24:16;;;;;;;8.60;5.82;;;;;;;13.03;100.00;97210.81;5033497;28;20049;-68
2024/03/17 07:26:42;;;;;;;4.20;2.75;;;;;;;13.06;100.00;97208.09;5040106;28;20407;-68
2024/03/17 07:29:08;;;;;;;5.32;2.70;;;;;;;13.45;100.00;97196.88;5034560;28;20044;-68
2024/03/17 07:31:34;;;;;;;17.40;11.18;;;;;;;13.28;100.00;97198.19;5039053;28;20047;-68
2024/03/17 07:33:59;;;;;;;8.98;6.40;;;;;;;13.90;100.00;97195.06;5025077;28;20435;-68
2024/03/17 07:36:24;;;;;;;5.70;3.25;;;;;;;13.84;100.00;97199.31;5035856;28;20646;-68
2024/03/17 07:38:50;;;;;;;5.22;3.20;;;;;;;15.45;100.00;97202.66;5023193;28;20042;-68
2024/03/17 07:41:16;;;;;;;4.63;3.40;;;;;;;14.88;100.00;97199.53;5034093;28;20040;-69
2024/03/17 07:43:41;;;;;;;5.00;2.67;;;;;;;15.20;100.00;97197.00;5012714;28;20055;-69
2024/03/17 07:46:08;;;;;;;5.22;3.63;;;;;;;14.86;100.00;97201.88;5014930;28;20072;-69
2024/03/17 07:48:35;;;;;;;6.70;4.47;;;;;;;11.26;100.00;97182.88;5027660;28;20447;-70
2024/03/17 07:51:09;;;;;;;6.93;3.88;;;;;;;10.69;100.00;97179.66;5037713;28;20049;-69
2024/03/17 07:53:36;;;;;;;6.43;3.42;;;;;;;11.83;100.00;97175.03;5039256;28;20045;-68
2024/03/17 07:56:04;;;;;;;6.90;3.50;;;;;;;12.72;100.00;97175.00;5027848;28;20041;-69
2024/03/17 07:58:32;;;;;;;7.18;4.15;;;;;;;11.39;100.00;97171.78;5024904;28;20447;-69
2024/03/17 08:01:03;;;;;;;8.27;4.60;;;;;;;11.95;100.00;97176.81;5027917;28;20045;-67
2024/03/17 08:03:29;;;;;;;10.32;5.45;;;;;;;11.54;100.00;97176.41;5020042;28;20059;-70
2024/03/17 08:05:55;;;;;;;9.75;5.13;;;;;;;12.17;100.00;97180.78;5037368;28;20075;-69
2024/03/17 08:08:21;;;;;;;9.43;5.38;;;;;;;11.98;100.00;97178.06;5014508;28;20810;-69
2024/03/17 08:10:48;;;;;;;10.27;5.80;;;;;;;11.79;100.00;97179.66;5027502;28;20041;-69
2024/03/17 08:13:16;;;;;;;12.40;6.15;;;;;;;11.86;100.00;97189.97;5035317;28;20575;-70
2024/03/17 08:15:47;;;;;;;13.40;6.50;;;;;;;11.42;100.00;97184.78;5031065;28;20041;-69
2024/03/17 08:18:13;;;;;;;11.43;6.75;;;;;;;10.02;100.00;97182.28;5026781;28;20124;-69
2024/03/17 08:20:43;;;;;;;11.25;7.47;;;;;;;10.20;100.00;97177.25;5028811;28;20428;-69
2024/03/17 08:23:10;;;;;;;18.48;7.45;;;;;;;10.04;100.00;97179.97;5034288;28;20395;-71
2024/03/17 08:25:36;;;;;;;13.73;7.28;;;;;;;10.52;100.00;97174.56;5034433;28;20427;-68
2024/03/17 08:28:02;;;;;;;12.77;7.20;;;;;;;11.18;100.00;97178.41;5042347;28;20049;-69
2024/03/17 08:30:30;;;;;;;17.67;7.82;;;;;;;11.71;100.00;97186.16;5037688;28;20041;-68
2024/03/17 08:32:55;;;;;;;11.85;7.20;;;;;;;12.21;100.00;97183.59;5031317;28;20041;-69
2024/03/17 08:35:21;;;;;;;10.90;5.70;;;;;;;12.74;100.00;97183.66;5031590;28;20064;-69
2024/03/17 08:37:46;;;;;;;12.93;6.03;;;;;;;12.70;100.00;97179.28;5024616;28;20056;-69
2024/03/17 08:40:12;;;;;;;9.10;5.75;;;;;;;13.08;100.00;97181.03;5026157;28;20094;-69
2024/03/17 08:42:38;;;;;;;8.63;4.57;;;;;;;13.18;100.00;97177.63;5038565;28;20072;-68
2024/03/17 08:45:04;;;;;;;9.68;4.80;;;;;;;12.47;100.00;97182.84;5026406;28;20423;-69
2024/03/17 08:47:29;;;;;;;9.95;6.07;;;;;;;12.00;100.00;97178.50;5038219;28;20053;-69
2024/03/17 08:49:55;;;;;;;8.38;5.72;;;;;;;11.78;100.00;97174.53;5019541;28;20048;-69
2024/03/17 08:52:20;;;;;;;10.48;5.90;;;;;;;11.36;100.00;97165.09;5012969;28;20819;-69
2024/03/17 08:54:47;;;;;;;6.82;5.45;;;;;;;11.33;100.00;97168.53;5027452;28;20049;-69
2024/03/17 08:57:13;;;;;;;25.52;8.57;;;;;;;11.55;100.00;97169.75;5019939;28;20448;-69
2024/03/17 08:59:39;;;;;;;10.05;6.47;;;;;;;11.90;100.00;97168.88;5035096;28;20568;-69
2024/03/17 09:02:06;;;;;;;9.70;6.18;;;;;;;12.00;100.00;97165.56;5033607;28;20128;-69
2024/03/17 09:04:31;;;;;;;20.63;7.70;;;;;;;12.19;100.00;97170.22;5038805;28;20365;-69
2024/03/17 09:06:57;;;;;;;9.48;6.45;;;;;;;12.04;100.00;97171.88;5026261;28;20057;-70
2024/03/17 09:09:22;;;;;;;12.38;6.28;;;;;;;12.16;100.00;97170.16;5041044;28;20046;-69
2024/03/17 09:11:48;;;;;;;10.35;6.57;;;;;;;12.36;100.00;97174.41;5047597;28;20049;-69
2024/03/17 09:14:14;;;;;;;15.45;6.85;;;;;;;12.75;100.00;97167.97;5032869;28;20129;-68
2024/03/17 09:16:39;;;;;;;14.95;8.68;;;;;;;13.03;100.00;97166.81;5041900;28;20403;-70
2024/03/17 09:19:05;;;;;;;11.60;8.18;;;;;;;12.90;100.00;97172.50;5041847;28;20041;-69
2024/03/17 09:21:30;;;;;;;11.32;5.45;;;;;;;13.06;100.00;97168.81;5044143;28;20554;-69
2024/03/17 09:23:56;;;;;;;10.60;6.70;;;;;;;13.79;100.00;97176.81;5032322;28;20055;-69
2024/03/17 09:26:22;;;;;;;8.57;6.10;;;;;;;13.45;100.00;97176.81;5021818;28;20507;-68
2024/03/17 09:28:47;;;;;;;10.82;5.80;;;;;;;13.17;100.00;97172.50;5046365;28;20049;-68
2024/03/17 09:31:13;;;;;;;6.93;5.32;;;;;;;13.91;100.00;97174.59;5025371;28;20037;-69
2024/03/17 09:33:38;;;;;;;11.25;6.63;;;;;;;14.81;100.00;97172.69;5035833;28;20045;-69
2024/03/17 09:36:10;;;;;;;9.60;5.60;;;;;;;15.28;100.00;97175.75;5027104;28;20036;-69
2024/03/17 09:38:37;;;;;;;10.77;5.60;;;;;;;14.98;100.00;97174.00;5042094;28;20044;-69
2024/03/17 09:41:03;;;;;;;7.38;5.07;;;;;;;15.09;100.00;97168.56;5034038;28;20042;-69
2024/03/17 09:43:35;;;;;;;8.35;5.47;;;;;;;15.01;100.00;97158.63;5014184;28;20049;-69
2024/03/17 09:46:05;;;;;;;9.40;5.35;;;;;;;15.19;100.00;97169.78;5032547;28;20567;-69
2024/03/17 09:48:30;;;;;;;7.72;5.20;;;;;;;15.37;100.00;97164.34;5034493;28;20045;-70
2024/03/17 09:50:57;;;;;;;10.05;5.13;;;;;;;15.41;100.00;97167.91;5022541;28;20045;-69
2024/03/17 09:53:31;;;;;;;9.90;5.82;;;;;;;14.49;100.00;97162.16;5016776;28;20041;-70
2024/03/17 09:55:59;;;;;;;8.57;5.20;;;;;;;13.45;100.00;97149.31;5021438;28;20388;-69
2024/03/17 09:58:24;;;;;;;8.93;4.97;;;;;;;14.53;100.00;97151.97;5036983;28;20044;-69
2024/03/17 10:00:49;;;;;;;11.27;4.75;;;;;;;15.10;100.00;97151.59;5033503;28;20037;-69
2024/03/17 10:03:40;;;;;;;8.75;4.30;;;;;;;15.04;100.00;97153.16;5020438;28;20066;-70
2024/03/17 10:06:06;;;;;;;8.45;4.38;;;;;;;15.68;100.00;97152.66;5035972;28;20579;-70
2024/03/17 10:08:33;;;;;;;8.93;4.60;;;;;;;15.94;100.00;97158.28;5040741;28;20059;-69
2024/03/17 10:10:59;;;;;;;6.00;3.85;;;;;;;15.81;100.00;97164.16;5040991;28;20042;-69
2024/03/17 10:13:25;;;;;;;8.55;4.50;;;;;;;15.81;100.00;97160.59;5037623;28;20051;-69
2024/03/17 10:15:50;;;;;;;9.52;4.40;;;;;;;14.97;100.00;97161.38;5032360;28;20091;-69
2024/03/17 10:18:23;;;;;;;9.60;4.30;;;;;;;14.93;100.00;97163.31;5038288;28;20058;-69
2024/03/17 10:20:56;;;;;;;8.98;4.10;;;;;;;15.55;100.00;97159.69;5040189;28;20037;-69
2024/03/17 10:23:22;;;;;;;8.25;4.03;;;;;;;14.27;100.00;97157.66;5027543;28;20619;-70
2024/03/17 10:25:48;;;;;;;8.50;3.75;;;;;;;14.58;100.00;97158.34;5029040;28;20069;-69
2024/03/17 10:28:15;;;;;;;6.63;3.45;;;;;;;15.80;100.00;97159.03;5037474;28;20118;-70
2024/03/17 10:30:42;;;;;;;10.95;3.97;;;;;;;15.80;100.00;97164.56;5029082;28;20052;-71
2024/03/17 10:33:22;;;;;;;8.40;3.90;;;;;;;16.29;99.63;97160.31;5014059;28;20037;-69
2024/03/17 10:35:48;;;;;;;7.00;3.50;;;;;;;16.46;95.59;97160.72;5033238;28;20052;-69
2024/03/17 10:38:14;;;;;;;9.43;2.92;;;;;;;16.33;99.45;97166.66;5035325;28;20064;-69
2024/03/17 10:40:41;;;;;;;6.45;2.97;;;;;;;16.32;94.93;97162.28;5040492;28;20103;-71
2024/03/17 10:43:07;;;;;;;7.45;2.70;;;;;;;16.91;89.86;97167.47;5025160;28;20045;-69
2024/03/17 10:45:38;;;;;;;9.60;2.95;;;;;;;17.16;89.12;97163.84;5027315;28;20042;-69
2024/03/17 10:48:09;;;;;;;7.35;2.90;;;;;;;16.62;91.80;97161.13;5026837;28;20041;-69
2024/03/17 10:50:39;;;;;;;7.60;2.53;;;;;;;17.16;88.73;97167.41;5016925;28;20038;-70
2024/03/17 10:53:09;;;;;;;7.55;2.85;;;;;;;17.50;86.72;97166.94;5017442;28;20049;-69
2024/03/17 10:55:43;;;;;;;5.63;2.40;;;;;;;17.31;86.19;97170.16;5043075;28;20049;-69
2024/03/17 10:58:33;;;;;;;8.50;3.22;;;;;;;16.66;90.97;97169.44;5017752;28;20060;-69
2024/03/17 11:01:01;;;;;;;8.95;2.92;;;;;;;15.89;96.24;97158.66;5022137;28;20127;-69
2024/03/17 11:03:31;;;;;;;6.38;2.70;;;;;;;15.74;97.45;97168.88;5039218;28;20041;-68
2024/03/17 11:05:58;;;;;;;8.25;2.88;;;;;;;16.45;91.01;97173.75;5031199;28;20076;-70
2024/03/17 11:08:24;;;;;;;7.10;2.72;;;;;;;16.98;91.66;97173.00;5027578;28;20041;-70
2024/03/17 11:10:54;;;;;;;6.57;2.85;;;;;;;17.32;89.65;97172.53;5039937;28;20087;-70
2024/03/17 11:13:29;;;;;;;6.18;2.75;;;;;;;15.46;99.30;97171.09;5018135;28;20052;-69
2024/03/17 11:16:01;;;;;;;7.82;3.22;;;;;;;16.03;96.32;97162.25;5038927;28;20052;-71
2024/03/17 11:18:35;;;;;;;6.70;2.95;;;;;;;16.64;94.41;97164.28;5036808;28;20044;-70
2024/03/17 11:21:34;;;;;;;6.43;2.83;;;;;;;16.62;93.13;97161.91;5039281;28;20044;-71
2024/03/17 11:24:02;;;;;;;4.97;2.87;;;;;;;16.52;94.53;97154.41;4975546;28;20256;-72
2024/03/17 11:26:33;;;;;;;4.25;2.83;;;;;;;15.92;99.18;97157.88;5026549;28;20056;-71
2024/03/17 11:29:00;;;;;;;7.97;3.03;;;;;;;15.62;100.00;97150.66;5033866;28;20136;-72
2024/03/17 11:31:40;;;;;;;10.75;4.22;;;;;;;15.23;100.00;97148.50;5039654;28;20055;-70